Time;durP1;ratioP1;P1;durP2;ratioP2;P2;SDS_P1;SDS_P2;PMS_P1;PMS_P2;Temp;Humidity;BMP_temperature;BMP_pressure;BME280_temperature;BME280_humidity;BME280_pressure;Samples;Min_cycle;Max_cycle;Signal;HPM_P1;HPM_P2
2022/01/13 00:01:45;;;;;;;2.55;2.40;;;;;;;-3.00;95.66;101126.81;4918091;29;20048;-71
2022/01/13 00:04:13;;;;;;;2.22;2.13;;;;;;;-2.95;95.29;101127.16;4910343;29;20028;-71
2022/01/13 00:06:39;;;;;;;3.33;2.97;;;;;;;-3.09;94.78;101121.09;4917845;29;20032;-72
2022/01/13 00:09:06;;;;;;;2.13;1.85;;;;;;;-3.08;94.97;101119.44;4918046;29;20111;-71
2022/01/13 00:11:32;;;;;;;2.05;1.95;;;;;;;-3.03;95.11;101126.63;4917889;29;20032;-72
2022/01/13 00:14:21;;;;;;;3.83;3.38;;;;;;;-3.07;95.23;101124.63;4917761;29;20036;-71
2022/01/13 00:17:22;;;;;;;2.78;2.30;;;;;;;-3.02;94.94;101118.25;4917821;29;20032;-72
2022/01/13 00:24:40;;;;;;;1.88;1.80;;;;;;;-2.92;94.94;101125.75;4917329;29;20099;-71
2022/01/13 00:27:10;;;;;;;3.53;3.15;;;;;;;-2.74;95.53;101135.50;4917465;29;20031;-72
2022/01/13 00:29:39;;;;;;;3.03;2.38;;;;;;;-2.68;94.95;101141.00;4917485;29;20032;-72
2022/01/13 00:32:05;;;;;;;1.90;1.83;;;;;;;-2.46;95.62;101143.44;4917354;29;20039;-72
2022/01/13 00:34:30;;;;;;;3.00;2.75;;;;;;;-2.23;95.40;101140.00;4909678;29;20032;-72
2022/01/13 00:36:58;;;;;;;3.30;3.10;;;;;;;-2.29;94.14;101147.19;4917370;29;20028;-72
2022/01/13 00:39:24;;;;;;;4.93;4.53;;;;;;;-2.27;93.35;101151.59;4917425;29;20024;-72
2022/01/13 00:41:49;;;;;;;2.25;2.15;;;;;;;-2.27;92.74;101150.69;4917267;29;20024;-72
2022/01/13 00:44:19;;;;;;;4.18;3.95;;;;;;;-2.24;92.13;101156.00;4917282;29;20028;-72
2022/01/13 00:46:46;;;;;;;3.95;3.65;;;;;;;-2.29;92.49;101157.34;4917509;29;20036;-72
2022/01/13 00:49:14;;;;;;;3.55;2.08;;;;;;;-2.33;91.85;101164.72;4917329;29;20035;-72
2022/01/13 00:51:40;;;;;;;3.13;2.92;;;;;;;-2.54;92.00;101165.72;4917151;29;20039;-72
2022/01/13 00:54:07;;;;;;;2.00;1.90;;;;;;;-2.56;92.27;101161.28;4917101;29;20028;-72
2022/01/13 00:56:33;;;;;;;3.97;3.10;;;;;;;-2.46;92.48;101157.03;4916892;29;20032;-72
2022/01/13 00:58:59;;;;;;;1.55;1.55;;;;;;;-2.54;92.56;101159.75;4916866;29;20035;-72
2022/01/13 05:16:24;;;;;;;3.92;3.63;;;;;;;-1.35;92.70;101120.75;5450387;23;20107;-72
2022/01/13 05:21:45;;;;;;;2.42;2.33;;;;;;;-1.24;94.03;101130.75;4916985;29;20063;-71
2022/01/13 05:24:11;;;;;;;3.88;3.60;;;;;;;-1.39;92.65;101125.53;4916856;29;20040;-72
2022/01/13 05:26:37;;;;;;;2.00;1.90;;;;;;;-1.38;92.09;101125.63;4916407;29;20545;-68
2022/01/13 05:29:03;;;;;;;2.75;2.63;;;;;;;-1.26;92.48;101117.91;4917060;29;20115;-71
2022/01/13 05:31:29;;;;;;;2.58;2.42;;;;;;;-1.26;92.38;101132.28;4916565;29;20032;-71
2022/01/13 05:33:54;;;;;;;1.40;1.40;;;;;;;-1.28;91.98;101133.88;4908394;29;20057;-68
2022/01/13 05:36:19;;;;;;;5.53;3.20;;;;;;;-1.20;91.30;101136.16;4898913;29;20028;-71
2022/01/13 05:38:45;;;;;;;4.85;4.45;;;;;;;-1.19;92.56;101134.47;4900256;29;20051;-71
2022/01/13 05:41:10;;;;;;;1.80;1.80;;;;;;;-1.51;91.38;101140.81;4916444;29;20123;-71
2022/01/13 05:43:36;;;;;;;2.10;2.00;;;;;;;-1.27;91.87;101140.72;4916421;29;20039;-68
2022/01/13 05:46:02;;;;;;;6.57;2.47;;;;;;;-1.28;91.39;101134.75;4916260;29;20028;-68
2022/01/13 05:48:27;;;;;;;8.23;3.30;;;;;;;-1.15;92.02;101133.91;4916290;29;20076;-71
2022/01/13 05:50:53;;;;;;;3.00;2.80;;;;;;;-1.11;90.82;101143.50;4916305;29;20044;-69
2022/01/13 05:53:18;;;;;;;4.00;3.63;;;;;;;-1.27;90.32;101150.88;4916187;29;20042;-71
2022/01/13 05:55:44;;;;;;;3.20;2.95;;;;;;;-1.32;90.26;101143.81;4916026;29;20118;-68
2022/01/13 05:58:09;;;;;;;3.90;2.92;;;;;;;-1.21;89.68;101138.56;4915991;29;20110;-71
2022/01/13 06:00:35;;;;;;;6.15;3.45;;;;;;;-1.24;89.80;101140.94;4916231;29;20047;-71
2022/01/13 06:03:02;;;;;;;3.00;2.88;;;;;;;-1.10;90.57;101140.19;4915979;29;20035;-71
2022/01/13 06:05:27;;;;;;;2.38;2.28;;;;;;;-1.15;89.83;101141.53;4903436;29;20036;-71
2022/01/13 06:07:53;;;;;;;3.78;3.55;;;;;;;-1.10;89.51;101145.28;4896984;29;20466;-71
2022/01/13 06:10:19;;;;;;;1.88;1.77;;;;;;;-1.07;88.97;101150.53;4896974;29;20060;-71
2022/01/13 06:12:47;;;;;;;2.45;2.17;;;;;;;-1.16;87.65;101139.75;4908935;29;20035;-71
2022/01/13 06:15:14;;;;;;;2.58;2.28;;;;;;;-1.14;87.64;101145.84;4914218;29;20035;-71
2022/01/13 06:17:41;;;;;;;9.18;3.40;;;;;;;-1.10;88.26;101140.19;4915869;29;20394;-71
2022/01/13 06:20:09;;;;;;;3.78;2.63;;;;;;;-1.10;88.09;101143.59;4915649;29;20032;-71
2022/01/13 06:22:35;;;;;;;6.32;3.63;;;;;;;-1.19;87.21;101134.47;4915494;29;20099;-71
2022/01/13 06:25:02;;;;;;;10.23;4.63;;;;;;;-1.16;87.24;101140.66;4915819;29;20028;-71
2022/01/13 06:27:27;;;;;;;3.03;2.35;;;;;;;-1.12;86.97;101134.97;4915548;29;20103;-71
2022/01/13 06:29:53;;;;;;;2.92;2.67;;;;;;;-1.10;87.24;101140.19;4914504;29;20467;-68
2022/01/13 06:32:20;;;;;;;3.03;2.92;;;;;;;-1.06;87.67;101131.97;4915622;29;20501;-70
2022/01/13 06:34:45;;;;;;;1.70;1.60;;;;;;;-0.99;87.58;101139.22;4915444;29;20371;-71
2022/01/13 06:37:11;;;;;;;4.15;3.78;;;;;;;-1.04;87.13;101135.50;4915520;29;20083;-71
2022/01/13 06:39:36;;;;;;;4.20;2.58;;;;;;;-1.11;86.74;101143.50;4915699;29;20028;-71
2022/01/13 06:42:02;;;;;;;1.95;1.85;;;;;;;-1.06;86.62;101142.16;4915434;29;20028;-71
2022/01/13 06:44:27;;;;;;;8.82;3.70;;;;;;;-1.04;86.68;101140.59;4915419;29;20028;-71
2022/01/13 06:46:52;;;;;;;3.03;2.78;;;;;;;-1.03;86.88;101142.34;4915476;29;20048;-71
2022/01/13 06:49:18;;;;;;;4.03;3.72;;;;;;;-1.05;86.38;101138.81;4915714;29;20032;-73
2022/01/13 06:51:43;;;;;;;5.38;3.67;;;;;;;-1.10;85.83;101140.19;4915541;29;20028;-72
2022/01/13 06:54:08;;;;;;;2.53;2.40;;;;;;;-1.02;86.50;101144.09;4915554;29;20043;-72
2022/01/13 06:56:34;;;;;;;6.15;2.35;;;;;;;-0.98;86.57;101146.06;4915167;29;20040;-73
2022/01/13 06:59:04;;;;;;;7.10;5.53;;;;;;;-0.91;86.90;101153.34;4915501;29;20034;-72
2022/01/13 07:01:29;;;;;;;4.45;3.97;;;;;;;-0.83;87.86;101152.16;4915498;29;20681;-72
2022/01/13 07:03:55;;;;;;;2.75;2.40;;;;;;;-0.96;85.54;101157.25;4915652;29;20058;-72
2022/01/13 07:06:20;;;;;;;2.35;2.25;;;;;;;-0.81;86.25;101170.09;4915169;29;20163;-72
2022/01/13 07:08:45;;;;;;;2.80;2.60;;;;;;;-0.89;84.61;101171.25;4915817;29;20065;-72
2022/01/13 07:11:11;;;;;;;3.38;3.10;;;;;;;-0.88;84.60;101184.06;4915250;29;20456;-71
2022/01/13 07:13:36;;;;;;;3.55;3.25;;;;;;;-0.79;85.45;101192.31;4915353;29;20031;-71
2022/01/13 07:16:02;;;;;;;4.93;3.05;;;;;;;-0.77;85.69;101187.34;4914892;29;20568;-71
2022/01/13 07:18:29;;;;;;;3.42;3.22;;;;;;;-0.73;85.33;101190.94;4915374;29;20020;-72
2022/01/13 07:20:56;;;;;;;5.00;4.50;;;;;;;-0.75;84.04;101198.50;4915321;29;20028;-72
2022/01/13 07:23:21;;;;;;;7.63;2.88;;;;;;;-0.59;84.45;101203.81;4914119;29;20481;-72
2022/01/13 07:25:47;;;;;;;4.15;3.75;;;;;;;-0.57;83.40;101201.38;4915097;29;20096;-72
2022/01/13 07:28:12;;;;;;;5.30;2.00;;;;;;;-0.71;83.29;101191.94;4915244;29;20020;-68
2022/01/13 07:30:38;;;;;;;4.65;4.18;;;;;;;-0.77;83.01;101197.53;4915516;29;20040;-68
2022/01/13 07:33:03;;;;;;;3.28;3.08;;;;;;;-0.68;85.48;101202.31;4914968;29;20063;-68
2022/01/13 07:35:29;;;;;;;2.90;2.53;;;;;;;-0.84;83.29;101206.38;4903984;29;20056;-68
2022/01/13 07:37:54;;;;;;;2.92;2.78;;;;;;;-0.77;83.36;101205.16;4899582;29;20103;-67
2022/01/13 07:40:19;;;;;;;3.40;3.22;;;;;;;-0.71;83.29;101202.13;4899680;29;20537;-71
2022/01/13 07:42:46;;;;;;;2.72;2.05;;;;;;;-0.86;83.46;101202.88;4912096;29;20084;-70
2022/01/13 07:45:13;;;;;;;3.30;3.00;;;;;;;-0.82;83.82;101204.84;4918445;29;20084;-71
2022/01/13 07:47:39;;;;;;;2.55;2.45;;;;;;;-0.93;84.02;101200.69;4918636;29;20047;-71
2022/01/13 07:50:06;;;;;;;3.60;2.60;;;;;;;-0.82;83.58;101201.44;4918364;29;20036;-71
2022/01/13 07:52:32;;;;;;;3.25;3.08;;;;;;;-0.81;84.16;101206.59;4918176;29;20032;-68
2022/01/13 07:54:57;;;;;;;4.18;3.67;;;;;;;-0.65;83.62;101212.72;4918157;29;20024;-68
2022/01/13 07:57:23;;;;;;;5.50;4.03;;;;;;;-0.78;84.30;101211.88;4917996;29;20036;-71
2022/01/13 07:59:48;;;;;;;3.03;2.80;;;;;;;-0.73;84.42;101199.47;4918656;29;20454;-72
2022/01/13 08:02:14;;;;;;;4.68;3.38;;;;;;;-0.82;84.30;101212.50;4918117;29;20112;-71
2022/01/13 08:04:39;;;;;;;5.28;4.78;;;;;;;-0.90;84.24;101211.09;4918024;29;20083;-71
2022/01/13 08:07:04;;;;;;;7.15;2.63;;;;;;;-0.73;84.05;101203.69;4917933;29;20020;-71
2022/01/13 08:09:30;;;;;;;4.30;3.95;;;;;;;-0.68;83.40;101207.41;4917804;29;20417;-71
2022/01/13 08:11:55;;;;;;;1.88;1.77;;;;;;;-0.79;83.56;101215.22;4916538;29;20478;-71
2022/01/13 08:14:20;;;;;;;2.30;2.17;;;;;;;-0.78;84.09;101219.50;4917697;29;20028;-71
2022/01/13 08:16:47;;;;;;;2.13;2.03;;;;;;;-0.69;83.68;101215.81;4917620;29;20099;-71
2022/01/13 08:21:56;;;;;;;5.75;3.88;;;;;;;-0.35;83.53;101219.78;4917817;29;20120;-71
2022/01/13 08:24:22;;;;;;;4.25;2.88;;;;;;;-0.22;82.40;101220.59;4917779;29;20489;-71
2022/01/13 08:26:47;;;;;;;3.13;2.92;;;;;;;-0.22;81.78;101218.06;4917596;29;20032;-71
2022/01/13 08:29:12;;;;;;;6.90;4.10;;;;;;;0.00;82.43;101213.56;4932218;29;20111;-71
2022/01/13 08:31:38;;;;;;;5.15;4.38;;;;;;;0.12;81.96;101213.44;4917564;29;20401;-71
2022/01/13 08:34:03;;;;;;;4.88;4.47;;;;;;;0.18;81.05;101214.69;4917301;29;20099;-71
2022/01/13 08:36:29;;;;;;;3.30;3.05;;;;;;;0.21;80.85;101220.00;4915999;29;20437;-72
2022/01/13 08:38:54;;;;;;;5.32;3.25;;;;;;;0.16;79.86;101211.19;4932060;29;20024;-71
2022/01/13 08:41:20;;;;;;;4.57;4.13;;;;;;;0.14;80.64;101212.72;4917662;29;20088;-72
2022/01/13 08:43:45;;;;;;;7.07;5.05;;;;;;;0.16;81.45;101216.28;4929399;29;20148;-68
2022/01/13 08:46:10;;;;;;;3.55;2.42;;;;;;;0.18;80.54;101214.69;4935797;29;20038;-68
2022/01/13 08:48:36;;;;;;;3.35;2.60;;;;;;;0.10;80.63;101205.72;4936378;29;20078;-71
2022/01/13 08:51:03;;;;;;;3.28;2.78;;;;;;;0.12;80.75;101198.16;4936165;29;20036;-71
2022/01/13 08:53:29;;;;;;;3.53;3.22;;;;;;;0.22;80.30;101216.66;4936384;29;20094;-71
2022/01/13 08:55:55;;;;;;;4.00;2.28;;;;;;;0.20;80.89;101207.16;4936114;29;20445;-71
2022/01/13 08:58:24;;;;;;;7.07;4.40;;;;;;;0.42;80.86;101204.25;4936302;29;20280;-71
2022/01/13 09:00:53;;;;;;;2.17;2.08;;;;;;;0.51;79.97;101199.72;4936266;28;20176;-71
2022/01/13 09:03:18;;;;;;;4.47;3.55;;;;;;;0.68;79.97;101204.22;4935993;29;20019;-71
2022/01/13 09:05:44;;;;;;;3.28;3.08;;;;;;;0.64;79.92;101196.28;4935657;29;20034;-71
2022/01/13 09:08:11;;;;;;;4.78;3.50;;;;;;;0.86;79.73;101193.31;4935912;29;20027;-71
2022/01/13 09:10:39;;;;;;;3.13;2.78;;;;;;;1.13;79.25;101184.75;4936031;29;20027;-71
2022/01/13 09:13:05;;;;;;;8.30;3.83;;;;;;;1.20;78.35;101181.75;4935802;29;20024;-71
2022/01/13 09:15:35;;;;;;;4.07;2.42;;;;;;;1.71;76.80;101177.88;4935372;29;20082;-71
2022/01/13 09:18:08;;;;;;;4.80;3.88;;;;;;;2.05;75.92;101179.75;4935718;29;20040;-71
2022/01/13 09:20:33;;;;;;;3.30;2.58;;;;;;;2.76;72.99;101164.81;4935703;29;20063;-71
2022/01/13 09:22:59;;;;;;;3.70;3.33;;;;;;;2.87;72.63;101161.91;4935944;29;20027;-71
2022/01/13 09:25:25;;;;;;;10.43;3.10;;;;;;;2.87;72.84;101167.03;4935595;29;20031;-71
2022/01/13 09:27:51;;;;;;;3.50;3.20;;;;;;;2.54;74.05;101169.59;4935473;29;20200;-71
2022/01/13 09:30:17;;;;;;;3.35;3.03;;;;;;;2.97;72.67;101169.25;4935631;29;20055;-72
2022/01/13 09:32:42;;;;;;;3.35;2.22;;;;;;;2.83;72.94;101174.56;4935335;29;20042;-72
2022/01/13 09:35:09;;;;;;;1.95;1.80;;;;;;;2.24;74.82;101177.41;4935257;29;20027;-71
2022/01/13 09:37:35;;;;;;;2.45;1.73;;;;;;;1.85;77.30;101185.44;4935278;29;20047;-71
2022/01/13 09:40:01;;;;;;;1.33;1.27;;;;;;;1.54;78.79;101181.13;4935621;29;20038;-71
2022/01/13 09:42:29;;;;;;;3.20;2.38;;;;;;;1.29;80.21;101182.28;4935205;29;20038;-71
2022/01/13 09:44:55;;;;;;;2.95;2.67;;;;;;;1.19;81.26;101185.09;4935173;29;20453;-71
2022/01/13 09:47:21;;;;;;;2.67;2.28;;;;;;;1.31;81.35;101184.06;4934843;29;20082;-71
2022/01/13 09:49:47;;;;;;;1.63;1.52;;;;;;;2.18;78.37;101177.06;4935498;29;20389;-71
2022/01/13 09:52:13;;;;;;;1.90;1.70;;;;;;;2.84;74.19;101168.63;4935410;29;20269;-71
2022/01/13 09:54:38;;;;;;;2.05;1.65;;;;;;;4.03;70.37;101172.75;4935192;29;20540;-71
2022/01/13 09:57:04;;;;;;;3.33;2.90;;;;;;;5.84;63.37;101155.75;4934603;29;20028;-71
2022/01/13 09:59:29;;;;;;;6.03;2.25;;;;;;;7.59;57.21;101152.59;4934803;29;20028;-71
2022/01/13 10:01:55;;;;;;;5.18;2.60;;;;;;;7.95;56.15;101143.47;4934870;29;20027;-71
2022/01/13 10:04:20;;;;;;;2.50;2.30;;;;;;;8.95;52.67;101144.66;4935128;29;20098;-71
2022/01/13 10:06:47;;;;;;;2.60;1.83;;;;;;;8.43;52.74;101143.19;4934858;29;20031;-71
2022/01/13 10:09:13;;;;;;;7.03;4.07;;;;;;;10.59;47.81;101134.66;4934977;29;20449;-71
2022/01/13 10:11:56;;;;;;;2.58;1.88;;;;;;;11.32;44.35;101136.03;4934932;29;20031;-72
2022/01/13 10:16:55;;;;;;;3.70;1.95;;;;;;;10.39;46.38;101126.50;4934626;29;20028;-71
2022/01/13 10:19:37;;;;;;;5.63;3.25;;;;;;;10.29;46.30;101128.00;4934728;29;20082;-72
2022/01/13 10:22:09;;;;;;;4.13;2.08;;;;;;;8.85;48.92;101137.47;4934922;29;20024;-72
2022/01/13 10:24:58;;;;;;;2.63;1.70;;;;;;;9.26;49.82;101135.97;4934694;29;20516;-72
2022/01/13 10:27:35;;;;;;;2.40;1.77;;;;;;;7.51;53.24;101149.78;4934449;29;20034;-72
2022/01/13 10:30:04;;;;;;;2.22;2.05;;;;;;;8.68;51.66;101143.88;4934812;29;20031;-71
2022/01/13 10:32:40;;;;;;;2.53;1.88;;;;;;;8.01;52.99;101147.06;4934643;29;20389;-71
2022/01/13 10:35:15;;;;;;;3.85;2.22;;;;;;;8.67;50.76;101144.72;4934385;29;20031;-71
2022/01/13 10:37:57;;;;;;;2.30;1.92;;;;;;;7.93;52.53;101150.28;4934478;29;20042;-72
2022/01/13 10:40:26;;;;;;;5.85;2.03;;;;;;;9.86;48.79;101129.63;4934660;29;20079;-71
2022/01/13 10:45:32;;;;;;;4.78;2.38;;;;;;;9.62;47.73;101139.41;4934467;29;20032;-72
2022/01/13 10:48:09;;;;;;;4.43;2.38;;;;;;;10.97;44.88;101133.69;4934537;29;20031;-72
2022/01/13 10:50:39;;;;;;;4.95;2.80;;;;;;;11.10;44.69;101134.78;4934724;29;20059;-72
2022/01/13 10:53:11;;;;;;;3.10;2.72;;;;;;;11.17;43.39;101139.25;4934673;29;20037;-71
2022/01/13 10:55:43;;;;;;;4.03;2.40;;;;;;;10.47;46.26;101131.00;4934337;29;20164;-71
2022/01/13 10:58:09;;;;;;;5.65;2.53;;;;;;;11.29;44.26;101130.78;4934404;29;20477;-71
2022/01/13 11:00:36;;;;;;;8.13;3.22;;;;;;;10.84;44.83;101136.91;4934617;29;20034;-71
2022/01/13 11:03:15;;;;;;;5.03;2.97;;;;;;;9.53;47.45;101134.91;4934309;29;20031;-71
2022/01/13 11:05:47;;;;;;;3.08;2.67;;;;;;;8.08;51.79;101138.69;4934239;29;20038;-71
2022/01/13 11:08:20;;;;;;;2.00;1.80;;;;;;;6.60;56.58;101137.19;4934524;29;20126;-71
2022/01/13 11:10:52;;;;;;;3.80;2.40;;;;;;;4.09;65.26;101157.66;4937994;29;20031;-71
2022/01/13 11:13:19;;;;;;;2.35;2.15;;;;;;;3.84;67.15;101160.75;4938065;29;20026;-72
2022/01/13 11:15:49;;;;;;;2.45;2.20;;;;;;;3.61;68.06;101157.97;4937595;29;20154;-72
2022/01/13 11:18:16;;;;;;;1.73;1.63;;;;;;;3.60;68.97;101156.22;4938129;29;20408;-72
2022/01/13 11:20:41;;;;;;;2.80;2.45;;;;;;;3.88;68.95;101161.78;4937848;29;20027;-72
2022/01/13 11:23:08;;;;;;;4.82;2.72;;;;;;;3.58;68.48;101167.22;4937869;29;20117;-71
2022/01/13 11:25:34;;;;;;;1.42;1.33;;;;;;;4.26;67.30;101167.00;4937859;29;20023;-71
2022/01/13 11:28:00;;;;;;;3.28;2.33;;;;;;;5.13;63.69;101157.16;4938250;29;20038;-71
2022/01/13 11:30:27;;;;;;;1.73;1.60;;;;;;;7.21;57.14;101149.66;4937938;29;20028;-71
2022/01/13 11:32:53;;;;;;;1.85;1.73;;;;;;;8.87;51.40;101156.47;4937857;29;20418;-72
2022/01/13 11:35:22;;;;;;;2.50;1.88;;;;;;;9.50;50.51;101146.06;4937523;29;20074;-72
2022/01/13 11:37:49;;;;;;;2.78;2.55;;;;;;;9.59;48.91;101147.13;4937290;29;20032;-72
2022/01/13 11:40:26;;;;;;;2.13;1.90;;;;;;;10.16;47.16;101136.34;4937933;29;20028;-72
2022/01/13 11:42:52;;;;;;;6.57;2.67;;;;;;;10.71;45.76;101134.91;4937301;29;20039;-72
2022/01/13 11:45:19;;;;;;;2.55;2.35;;;;;;;10.38;46.94;101141.16;4929638;29;20024;-72
2022/01/13 11:47:46;;;;;;;2.70;2.00;;;;;;;10.95;45.96;101135.38;4937222;29;20102;-72
2022/01/13 11:50:23;;;;;;;4.15;3.05;;;;;;;11.76;44.97;101125.50;4937359;29;20032;-72
2022/01/13 11:52:53;;;;;;;2.33;2.15;;;;;;;10.41;46.52;101136.06;4937321;29;20031;-72
2022/01/13 11:55:23;;;;;;;3.15;2.65;;;;;;;10.82;45.21;101128.22;4937321;29;20063;-72
2022/01/13 11:57:49;;;;;;;1.65;1.55;;;;;;;11.94;43.06;101123.22;4937060;29;20039;-72
2022/01/13 12:00:20;;;;;;;2.50;2.30;;;;;;;10.39;45.57;101131.66;4937323;28;20034;-72
2022/01/13 12:02:45;;;;;;;2.80;2.20;;;;;;;10.40;46.10;101121.34;4936890;29;20407;-72
2022/01/13 12:05:15;;;;;;;3.28;2.30;;;;;;;11.20;45.12;101122.84;4936973;29;20034;-72
2022/01/13 12:07:43;;;;;;;3.00;2.35;;;;;;;11.83;43.57;101109.16;4936772;28;20038;-72
2022/01/13 12:10:29;;;;;;;3.60;2.57;;;;;;;10.59;44.89;101124.28;4937161;29;20416;-72
2022/01/13 12:12:55;;;;;;;2.60;2.20;;;;;;;10.94;44.50;101112.88;4936721;29;20107;-71
2022/01/13 12:15:23;;;;;;;2.20;1.67;;;;;;;12.09;43.44;101105.22;4936492;29;20114;-71
2022/01/13 12:17:50;;;;;;;5.45;2.45;;;;;;;11.15;44.71;101111.50;4936964;29;20118;-71
2022/01/13 12:20:27;;;;;;;3.97;2.10;;;;;;;12.63;42.40;101092.00;4921565;28;20039;-71
2022/01/13 12:23:04;;;;;;;2.65;1.88;;;;;;;12.49;41.93;101087.50;4936830;29;20492;-71
2022/01/13 12:25:32;;;;;;;5.70;3.13;;;;;;;11.29;43.90;101099.66;4936654;29;20388;-71
2022/01/13 12:27:59;;;;;;;3.15;1.88;;;;;;;13.06;41.65;101085.50;4936546;29;20032;-72
2022/01/13 12:30:25;;;;;;;6.47;2.03;;;;;;;12.49;42.63;101082.31;4936565;29;20051;-72
2022/01/13 12:32:54;;;;;;;2.60;2.28;;;;;;;12.76;42.28;101075.66;4936475;29;20111;-72
2022/01/13 12:35:22;;;;;;;2.90;1.90;;;;;;;11.15;43.91;101085.56;4928684;29;20430;-72
2022/01/13 12:38:02;;;;;;;4.82;2.67;;;;;;;9.10;49.51;101081.25;4936377;29;20091;-72
2022/01/13 12:40:44;;;;;;;2.70;2.42;;;;;;;7.54;53.09;101089.66;4936314;29;20054;-72
2022/01/13 12:46:01;;;;;;;2.85;1.92;;;;;;;5.53;60.41;101086.78;4936164;29;20047;-71
2022/01/13 12:48:30;;;;;;;2.13;1.90;;;;;;;5.54;61.73;101078.25;4936387;29;20054;-71
2022/01/13 12:50:57;;;;;;;2.20;1.80;;;;;;;5.91;61.73;101078.91;4936252;29;20465;-71
2022/01/13 12:53:27;;;;;;;2.08;1.98;;;;;;;6.00;61.65;101078.38;4936318;29;20445;-71
2022/01/13 12:55:56;;;;;;;2.92;2.00;;;;;;;5.58;62.44;101075.00;4935925;29;20028;-71
2022/01/13 12:58:24;;;;;;;2.95;1.80;;;;;;;5.69;61.87;101078.84;4936277;29;20034;-71
2022/01/13 13:00:50;;;;;;;8.48;2.47;;;;;;;5.48;62.63;101084.03;4936024;29;20032;-71
2022/01/13 13:03:18;;;;;;;2.33;2.05;;;;;;;5.60;62.83;101088.78;4935892;29;20107;-71
2022/01/13 13:05:46;;;;;;;2.88;2.03;;;;;;;5.46;62.80;101089.94;4935863;29;20027;-71
2022/01/13 13:08:15;;;;;;;2.90;1.83;;;;;;;5.74;62.38;101090.19;4935968;29;20073;-71
2022/01/13 13:10:47;;;;;;;3.50;3.15;;;;;;;5.78;63.05;101080.91;4935089;29;20122;-71
2022/01/13 13:13:14;;;;;;;3.40;1.92;;;;;;;5.46;62.89;101084.78;4935897;29;20473;-71
2022/01/13 13:15:40;;;;;;;3.45;1.75;;;;;;;5.56;63.59;101079.19;4934624;29;20027;-71
2022/01/13 13:18:06;;;;;;;4.75;3.42;;;;;;;5.25;63.89;101075.41;4935625;29;20020;-71
2022/01/13 13:20:35;;;;;;;2.00;1.77;;;;;;;5.23;64.02;101076.16;4935733;29;20466;-71
2022/01/13 13:23:06;;;;;;;2.60;1.58;;;;;;;5.63;63.79;101068.34;4934753;29;20027;-71
2022/01/13 13:25:39;;;;;;;2.60;1.77;;;;;;;5.72;63.26;101058.41;4935560;29;20305;-71
2022/01/13 13:28:26;;;;;;;4.25;2.05;;;;;;;5.67;63.18;101057.34;4935489;29;20036;-71
2022/01/13 13:31:19;;;;;;;4.50;2.50;;;;;;;5.37;64.50;101050.22;4932351;29;20035;-71
2022/01/13 13:33:46;;;;;;;3.28;1.92;;;;;;;5.26;64.10;101061.72;4934538;29;20481;-71
2022/01/13 13:36:18;;;;;;;2.58;2.35;;;;;;;5.34;65.60;101059.47;4934338;29;20091;-71
2022/01/13 13:39:18;;;;;;;2.63;2.42;;;;;;;5.33;64.72;101047.44;4935155;29;20035;-71
2022/01/13 13:41:52;;;;;;;4.57;2.88;;;;;;;5.23;64.45;101053.91;4935524;29;20111;-71
2022/01/13 13:44:23;;;;;;;1.17;1.17;;;;;;;5.26;65.52;101051.44;4934503;29;20128;-71
2022/01/13 13:47:01;;;;;;;1.35;1.33;;;;;;;5.59;65.02;101041.63;4934882;29;20078;-71
2022/01/13 13:49:27;;;;;;;1.98;1.67;;;;;;;5.41;64.57;101041.81;4934499;29;20111;-71
2022/01/13 13:51:59;;;;;;;1.55;1.20;;;;;;;5.33;64.29;101038.03;4935157;29;20031;-71
2022/01/13 13:54:34;;;;;;;3.25;2.00;;;;;;;5.32;64.72;101038.88;4935253;29;20070;-71
2022/01/13 13:57:02;;;;;;;4.32;3.55;;;;;;;5.27;65.48;101032.66;4934864;29;20053;-71
2022/01/13 13:59:31;;;;;;;1.80;1.70;;;;;;;5.53;65.26;101025.09;4934289;29;20028;-71
2022/01/13 14:02:04;;;;;;;2.00;1.90;;;;;;;5.66;64.43;101027.31;4935142;29;20020;-71
2022/01/13 14:04:39;;;;;;;2.45;1.58;;;;;;;5.66;64.01;101023.06;4935010;29;20556;-71
2022/01/13 14:07:35;;;;;;;2.03;1.85;;;;;;;5.32;64.70;101020.88;4933915;29;20086;-72
2022/01/13 14:10:07;;;;;;;2.90;2.28;;;;;;;5.07;65.35;101023.25;4934927;29;20074;-71
2022/01/13 14:12:45;;;;;;;2.10;2.00;;;;;;;5.24;65.54;101013.66;4934188;29;20474;-71
2022/01/13 14:15:37;;;;;;;4.35;2.30;;;;;;;4.94;65.79;101026.16;4933319;29;20028;-71
2022/01/13 14:18:08;;;;;;;1.15;1.15;;;;;;;4.83;66.76;101023.13;4934703;29;20032;-71
2022/01/13 14:20:48;;;;;;;1.10;1.10;;;;;;;4.67;66.87;101021.63;4934938;29;20034;-71
2022/01/13 14:23:22;;;;;;;1.92;1.40;;;;;;;4.71;67.15;101013.25;4934817;29;20075;-71
2022/01/13 14:25:49;;;;;;;2.10;1.90;;;;;;;4.68;67.49;101015.69;4933892;29;20046;-71
2022/01/13 14:28:21;;;;;;;2.15;1.65;;;;;;;4.87;67.66;101010.47;4934581;29;20035;-71
2022/01/13 14:30:48;;;;;;;2.72;1.73;;;;;;;4.83;67.47;101006.03;4933862;29;20028;-71
2022/01/13 14:33:45;;;;;;;2.33;2.13;;;;;;;5.03;67.41;101011.09;4934496;29;20040;-71
2022/01/13 14:36:19;;;;;;;6.72;3.67;;;;;;;4.93;67.83;101003.84;4934987;29;20475;-71
2022/01/13 14:38:51;;;;;;;2.28;2.17;;;;;;;4.81;67.31;101005.09;4934083;29;20027;-71
2022/01/13 14:41:41;;;;;;;1.23;1.13;;;;;;;4.75;68.01;101004.00;4933168;29;20023;-71
2022/01/13 14:44:16;;;;;;;2.22;2.10;;;;;;;4.86;67.76;101003.59;4936122;29;20024;-71
2022/01/13 14:46:56;;;;;;;4.53;2.65;;;;;;;4.58;68.59;101005.84;4938580;29;20442;-71
2022/01/13 14:49:28;;;;;;;3.45;1.63;;;;;;;4.50;68.94;101000.41;4938375;29;20079;-71
2022/01/13 14:51:54;;;;;;;3.20;2.08;;;;;;;4.45;69.13;100999.31;4938693;29;20082;-71
2022/01/13 14:54:20;;;;;;;2.95;1.52;;;;;;;4.57;69.70;100999.81;4937421;29;20027;-71
2022/01/13 14:56:46;;;;;;;1.60;1.58;;;;;;;4.41;69.79;100994.88;4938164;29;20024;-71
2022/01/13 14:59:12;;;;;;;7.50;1.65;;;;;;;4.38;70.40;100998.16;4938783;29;20377;-71
2022/01/13 15:01:38;;;;;;;4.00;2.58;;;;;;;4.25;70.49;100987.31;4937347;29;20514;-71
2022/01/13 15:04:04;;;;;;;3.25;2.35;;;;;;;4.28;70.64;100985.75;4938058;29;20020;-71
2022/01/13 15:06:29;;;;;;;2.22;2.05;;;;;;;4.28;70.08;100988.31;4938020;29;20042;-71
2022/01/13 15:08:56;;;;;;;2.67;2.10;;;;;;;4.17;70.71;100984.44;4937298;29;20027;-72
2022/01/13 15:11:21;;;;;;;2.65;2.15;;;;;;;4.16;70.95;100985.25;4937938;29;20026;-71
2022/01/13 15:13:47;;;;;;;2.38;2.05;;;;;;;4.19;71.06;100980.22;4938005;29;20032;-71
2022/01/13 15:16:15;;;;;;;2.55;1.75;;;;;;;4.10;71.21;100985.84;4936912;29;20038;-71
2022/01/13 15:18:40;;;;;;;3.05;2.47;;;;;;;4.00;71.47;100983.69;4937812;29;20035;-71
2022/01/13 15:21:06;;;;;;;3.35;1.98;;;;;;;3.90;72.00;100988.34;4937678;29;20445;-71
2022/01/13 15:23:32;;;;;;;2.25;2.00;;;;;;;3.86;72.53;100985.63;4938352;29;20034;-71
2022/01/13 15:25:58;;;;;;;3.72;2.25;;;;;;;3.82;72.89;100982.84;4918144;28;20047;-71
2022/01/13 15:28:24;;;;;;;5.72;2.00;;;;;;;3.70;73.43;100988.34;4947594;29;20042;-71
2022/01/13 15:30:51;;;;;;;6.57;2.40;;;;;;;3.60;73.92;100976.78;4936926;29;20387;-71
2022/01/13 15:33:17;;;;;;;2.63;2.03;;;;;;;3.42;74.66;100977.63;4936203;29;20026;-71
2022/01/13 15:35:47;;;;;;;2.65;1.45;;;;;;;3.22;75.17;100982.69;4937677;29;20028;-71
2022/01/13 15:38:13;;;;;;;;;;;;;;;3.16;75.83;100982.41;4938175;29;20393;-71
2022/01/13 15:40:39;;;;;;;1.55;1.45;;;;;;;3.07;76.12;100987.09;4937698;29;19914;-71
2022/01/13 15:43:06;;;;;;;2.92;2.13;;;;;;;2.99;76.48;100988.41;4937776;29;20028;-72
2022/01/13 15:45:31;;;;;;;3.58;2.63;;;;;;;2.91;76.78;100989.75;4937435;29;20028;-72
2022/01/13 15:47:57;;;;;;;2.75;2.10;;;;;;;2.78;77.76;100993.38;4937468;29;20102;-72
2022/01/13 15:50:23;;;;;;;1.77;1.67;;;;;;;2.64;78.54;100990.13;4937652;29;20024;-72
2022/01/13 15:52:49;;;;;;;3.33;2.70;;;;;;;2.60;78.92;100983.09;4937553;29;20462;-71
2022/01/13 15:55:14;;;;;;;3.20;1.92;;;;;;;2.61;79.05;100984.88;4936370;29;20040;-72
2022/01/13 15:57:40;;;;;;;2.25;1.92;;;;;;;2.56;79.69;100981.19;4937099;29;20061;-71
2022/01/13 16:00:08;;;;;;;2.05;1.95;;;;;;;2.50;80.59;100991.13;4937098;29;20027;-71
2022/01/13 16:02:33;;;;;;;2.58;2.03;;;;;;;2.41;80.78;100991.53;4936900;29;20062;-71
2022/01/13 16:04:59;;;;;;;3.40;2.05;;;;;;;2.33;81.33;100987.72;4937017;29;20060;-72
2022/01/13 16:07:24;;;;;;;3.45;3.10;;;;;;;2.31;81.25;100985.06;4936847;29;20038;-72
2022/01/13 16:09:49;;;;;;;2.03;1.92;;;;;;;2.20;81.73;100981.09;4937093;29;20138;-71